Home   Weather   Austria   Graz   Past weeks
Flag for Austria

Past Weather in Graz, Styria, Austria — Yesterday and Last 2 Weeks

Currently: 68 °F. Clear. (Weather station: Graz-Thalerhof-Flughafen, Austria). See more current weather

Past Weather in Graz — Graph

°F

Graz Temperature Yesterday

Maximum temperature yesterday: 88 °F (at 4:50 pm)
Minimum temperature yesterday: 57 °F (at 4:20 am)
Average temperature yesterday: 74 °F

High & Low Weather Summary for the Past Weeks

 TemperatureHumidityPressure
High90 °F (Jul 1, 2:50 pm)100% (Jun 21, 2:50 am)30.24 "Hg (Jun 21, 2:50 am)
Low57 °F (Jun 19, 3:20 am)31% (Jul 1, 2:50 pm)29.77 "Hg (Jun 20, 1:20 pm)
Average73 °F69%29.97 "Hg
* Reported Jun 19 12:20 am — Jul 4 12:50 am, Graz. Weather by CustomWeather, © 2022

Note: Actual official high and low records may vary slightly from our data, if they occured in-between our weather recording intervals... More about our weather records

Graz Weather History for the Previous 24 Hours

Scroll right to see more
 ConditionsComfort  
Time TempWeatherWind HumidityBarometerVisibility
12:50 am
Mon, Jul 4
70 °FClear.1 mph78%30.07 "Hg10 mi
12:20 am72 °FClear.1 mph73%30.07 "Hg10 mi
11:50 pm
Sun, Jul 3
70 °FPassing clouds.3 mph83%30.09 "HgN/A
11:20 pm73 °FClear.2 mph69%30.09 "Hg10 mi
10:20 pm75 °FPassing clouds.1 mph69%30.09 "HgN/A
9:50 pm77 °FPassing clouds.1 mph57%30.07 "HgN/A
9:20 pm75 °FPassing clouds.5 mph65%30.07 "HgN/A
8:50 pm79 °FPassing clouds.5 mph54%30.07 "HgN/A
8:20 pm81 °FPassing clouds.3 mph54%30.07 "HgN/A
7:50 pm81 °FPassing clouds.7 mph58%30.07 "HgN/A
7:20 pm84 °FPassing clouds.7 mph51%30.07 "HgN/A
6:50 pm84 °FPassing clouds.9 mph48%30.07 "HgN/A
6:20 pm86 °FPassing clouds.10 mph46%30.04 "HgN/A
5:50 pm86 °FPassing clouds.9 mph46%30.04 "HgN/A
5:20 pm86 °FPassing clouds.10 mph43%30.07 "HgN/A
4:50 pm88 °FPassing clouds.9 mph43%30.07 "HgN/A
4:20 pm86 °FPassing clouds.6 mph43%30.07 "HgN/A
3:20 pm86 °FPassing clouds.7 mph43%30.07 "HgN/A
2:50 pm84 °FPassing clouds.5 mph45%30.07 "HgN/A
2:20 pm84 °FPassing clouds.5 mph45%30.09 "HgN/A
1:50 pm82 °FPassing clouds.5 mph45%30.09 "HgN/A
1:20 pm82 °FPassing clouds.5 mph45%30.09 "HgN/A
12:50 pm81 °FPassing clouds.3 mph45%30.12 "HgN/A
12:20 pm79 °FPassing clouds.5 mph48%30.12 "HgN/A
11:50 am77 °FPassing clouds.6 mph51%30.12 "HgN/A
11:20 am77 °FPassing clouds.5 mph47%30.12 "HgN/A
10:50 am75 °FPassing clouds.2 mph50%30.12 "HgN/A
10:20 am75 °FPassing clouds.5 mph50%30.12 "HgN/A
9:20 am73 °FSunny.2 mph57%30.12 "Hg10 mi
8:50 am70 °FSunny.2 mph64%30.12 "Hg10 mi
8:20 am68 °FSunny.2 mph69%30.12 "Hg10 mi
7:50 am66 °FSunny.1 mph73%30.12 "Hg10 mi
7:20 am64 °FSunny.1 mph78%30.12 "Hg10 mi
6:50 am63 °FSunny.2 mph83%30.12 "Hg10 mi
6:20 am59 °FCool.2 mph94%30.12 "HgN/A
5:50 am59 °FSunny.No wind88%30.12 "Hg10 mi
5:20 am57 °FCool.1 mph94%30.12 "HgN/A
4:50 am59 °FCool.1 mph88%30.12 "HgN/A
4:20 am57 °FCool.1 mph94%30.12 "HgN/A
3:50 am59 °FCool.1 mph88%30.12 "HgN/A
3:20 am61 °FCool.1 mph83%30.15 "HgN/A
2:50 am61 °FCool.1 mph83%30.15 "HgN/A
Weather by CustomWeather, © 2022

See weather overview